Flight Track Log - Related Links

Times and Time Zones

All times are in EDT time to prevent confusion due to time zone crossing. See the DAL1214 flight status page for this flight to view local times or setup timezone preferences in your user account.

Time Position Orientation Groundspeed Altitude Reporting Facility
EDT Latitude Longitude Course Direction KTS MPH feet Rate Location/Type
Wed 06:58:50 PM 33.6500 -84.4833 11° North 181 208 2,900  Level Atlanta TRACON
Wed 06:59:50 PM 33.6833 -84.5500 301° West 248 285 4,800 2,300 Climbing Atlanta TRACON
Wed 07:00:50 PM 33.7500 -84.5833 337° Northwest 293 337 7,500 2,098 Climbing Atlanta TRACON
Wed 07:01:00 PM 33.9837 -84.2667 North  Level FlightAware Approximate
Wed 07:02:00 PM 34.1198 -84.2667 North  Level FlightAware Approximate
Wed 07:02:53 PM 33.8811 -84.4717 35° Northeast 291 335 11,200  Level Atlanta Center
Wed 07:03:00 PM 34.2559 -84.2667 North  Level FlightAware Approximate
Wed 07:03:53 PM 33.9669 -84.3869 39° Northeast 357 411 12,400  Level Atlanta Center
Wed 07:04:00 PM 34.3899 -84.2412 11° North  Level FlightAware Approximate
Wed 07:04:53 PM 34.0736 -84.3522 15° North 377 434 14,500  Level Atlanta Center
Wed 07:05:53 PM 34.1883 -84.3125 16° North 411 473 16,700 2,050 Climbing Atlanta Center
Wed 07:06:53 PM 34.3033 -84.2778 14° North 422 486 18,600 1,850 Climbing Atlanta Center
Wed 07:07:53 PM 34.4222 -84.2503 11° North 427 491 20,400 1,600 Climbing Atlanta Center
Wed 07:08:53 PM 34.5308 -84.2228 12° North 434 499 21,800 1,500 Climbing Atlanta Center
Wed 07:09:53 PM 34.6686 -84.1928 10° North 448 516 23,400 1,500 Climbing Atlanta Center
Wed 07:10:53 PM 34.8022 -84.1628 10° North 459 528 24,800 1,500 Climbing Atlanta Center
Wed 07:11:53 PM 34.9294 -84.1300 12° North 465 535 26,400 1,100 Climbing Atlanta Center
Wed 07:12:53 PM 35.0589 -84.0997 11° North 470 541 27,000 300 Climbing Atlanta Center
Wed 07:13:53 PM 35.1906 -84.0692 11° North 470 541 27,000  Level Atlanta Center
Wed 07:14:53 PM 35.3219 -84.0336 12° North 470 541 27,000 550 Level Atlanta Center
Wed 07:15:53 PM 35.4575 -84.0031 10° North 475 547 28,100 1,300 Climbing Atlanta Center
Wed 07:16:53 PM 35.5911 -83.9697 11° North 480 552 29,600 1,200 Climbing Atlanta Center
Wed 07:17:53 PM 35.7225 -83.9389 11° North 485 558 30,500 700 Climbing Atlanta Center
Wed 07:18:53 PM 35.8581 -83.9056 11° North 485 558 31,000 250 Climbing Atlanta Center
Wed 07:19:53 PM 35.9831 -83.8436 22° Northeast 478 550 31,000 276 Level Atlanta Center
Wed 07:21:25 PM 36.1556 -83.7336 27° Northeast 500 575 31,700 468 Climbing Indianapolis Center
Wed 07:22:27 PM 36.2822 -83.6533 27° Northeast 509 586 32,200 634 Climbing Indianapolis Center
Wed 07:23:28 PM 36.4333 -83.5578 27° Northeast 510 587 33,000 390 Climbing Indianapolis Center
Wed 07:24:30 PM 36.5489 -83.4858 27° Northeast 507 583 33,000  Level Indianapolis Center
Wed 07:25:32 PM 36.6744 -83.3936 30° Northeast 518 596 33,000  Level Indianapolis Center
Wed 07:26:33 PM 36.7911 -83.2825 37° Northeast 523 602 33,000  Level Indianapolis Center
Wed 07:27:35 PM 36.9303 -83.1511 37° Northeast 531 611 33,000  Level Indianapolis Center
Wed 07:28:37 PM 37.0506 -83.0369 37° Northeast 530 610 33,000  Level Indianapolis Center
Wed 07:29:38 PM 37.1694 -82.9217 38° Northeast 531 611 33,000  Level Indianapolis Center
Wed 07:30:40 PM 37.2897 -82.8086 37° Northeast 533 613 33,000  Level Indianapolis Center
Wed 07:31:41 PM 37.4069 -82.6961 37° Northeast 529 609 33,000  Level Indianapolis Center
Wed 07:32:43 PM 37.5258 -82.5814 37° Northeast 532 612 33,000  Level Indianapolis Center
Wed 07:33:45 PM 37.6436 -82.4661 38° Northeast 533 613 33,000  Level Indianapolis Center
Wed 07:34:46 PM 37.7614 -82.3522 37° Northeast 534 615 33,000  Level Indianapolis Center
Wed 07:35:48 PM 37.8800 -82.2383 37° Northeast 535 616 33,000  Level Indianapolis Center
Wed 07:36:50 PM 37.9944 -82.1256 38° Northeast 531 611 33,000  Level Indianapolis Center
Wed 07:37:51 PM 38.1356 -81.9853 38° Northeast 538 619 33,000  Level Indianapolis Center
Wed 07:38:53 PM 38.2528 -81.8694 38° Northeast 533 613 33,000  Level Indianapolis Center
Wed 07:39:55 PM 38.3658 -81.7478 40° Northeast 534 615 33,000  Level Indianapolis Center
Wed 07:40:56 PM 38.4667 -81.6036 48° Northeast 549 632 33,000  Level Indianapolis Center
Wed 07:41:58 PM 38.5653 -81.4614 48° Northeast 547 629 33,000  Level Indianapolis Center
Wed 07:43:00 PM 38.6844 -81.2919 48° Northeast 548 631 33,000  Level Indianapolis Center
Wed 07:44:01 PM 38.7847 -81.1478 48° Northeast 548 631 33,000  Level Indianapolis Center
Wed 07:45:03 PM 38.8856 -81.0008 49° Northeast 551 634 33,000  Level Indianapolis Center
Wed 07:46:05 PM 38.9883 -80.8525 48° Northeast 557 641 33,000  Level Indianapolis Center
Wed 07:47:07 PM 39.0917 -80.7047 48° Northeast 554 638 33,000  Level Indianapolis Center
Wed 07:48:08 PM 39.1953 -80.5614 47° Northeast 552 635 33,000  Level Indianapolis Center
Wed 07:49:10 PM 39.2997 -80.4161 47° Northeast 552 635 33,000  Level Indianapolis Center
Wed 07:50:12 PM 39.4247 -80.2394 47° Northeast 553 636 33,000  Level Indianapolis Center
Wed 07:50:39 PM 39.4767 -80.1742 44° Northeast 549 632 33,000  Level Cleveland Center
Wed 07:51:38 PM 39.5844 -80.0364 45° Northeast 549 632 33,000  Level Cleveland Center
Wed 07:52:38 PM 39.7003 -79.9086 40° Northeast 544 626 33,000  Level Cleveland Center
Wed 07:53:38 PM 39.8164 -79.7831 40° Northeast 544 626 33,000  Level Cleveland Center
Wed 07:54:38 PM 39.9194 -79.6572 43° Northeast 549 632 33,000  Level Cleveland Center
Wed 07:55:38 PM 40.0161 -79.4989 51° Northeast 549 632 33,000  Level Cleveland Center
Wed 07:56:38 PM 40.1147 -79.3397 51° Northeast 556 640 33,000  Level Cleveland Center
Wed 07:57:38 PM 40.2067 -79.1803 53° Northeast 556 640 33,000  Level Cleveland Center
Wed 07:58:38 PM 40.3025 -79.0206 52° Northeast 551 634 33,000  Level Cleveland Center
Wed 07:59:38 PM 40.4003 -78.8628 51° Northeast 551 634 33,000  Level Cleveland Center
Wed 08:00:38 PM 40.4936 -78.7019 53° Northeast 551 634 33,000  Level Cleveland Center
Wed 08:02:29 PM 40.6669 -78.4108 52° Northeast 553 636 33,000  Level New York Center
Wed 08:03:26 PM 40.7622 -78.2542 51° Northeast 547 629 33,000  Level New York Center
Wed 08:04:28 PM 40.8650 -78.0786 52° Northeast 553 636 33,000  Level New York Center
Wed 08:05:28 PM 40.9525 -77.9094 56° Northeast 548 631 33,000  Level New York Center
Wed 08:06:29 PM 41.0294 -77.7386 59° Northeast 542 624 33,000  Level New York Center
Wed 08:07:29 PM 41.1058 -77.5675 59° Northeast 542 624 33,000  Level New York Center
Wed 08:08:26 PM 41.1822 -77.3958 59° Northeast 537 618 33,000  Level New York Center
Wed 08:09:27 PM 41.2564 -77.2264 60° Northeast 531 611 33,000  Level New York Center
Wed 08:10:27 PM 41.3322 -77.0542 60° Northeast 526 605 33,000  Level New York Center
Wed 08:11:28 PM 41.4056 -76.8867 60° Northeast 526 605 33,000  Level New York Center
Wed 08:12:27 PM 41.4789 -76.7161 60° Northeast 526 605 33,000  Level New York Center
Wed 08:13:28 PM 41.5517 -76.5450 60° Northeast 526 605 33,000  Level New York Center
Wed 08:14:28 PM 41.6175 -76.3897 60° Northeast 526 605 33,000  Level New York Center
Wed 08:15:27 PM 41.6900 -76.2181 60° Northeast 526 605 33,000  Level New York Center
Wed 08:17:40 PM 41.8469 -75.8431 61° Northeast 521 600 33,000  Level Boston Center
Wed 08:18:40 PM 41.9164 -75.6739 61° Northeast 516 594 33,000  Level Boston Center
Wed 08:19:40 PM 41.9858 -75.5069 61° Northeast 511 588 33,000  Level Boston Center
Wed 08:20:40 PM 42.0547 -75.3397 61° Northeast 511 588 33,000  Level Boston Center
Wed 08:21:40 PM 42.1278 -75.1753 59° Northeast 511 588 33,000 -300 Level Boston Center
Wed 08:22:40 PM 42.2111 -74.9994 57° Northeast 503 579 32,400 -1,400 Descending Boston Center
Wed 08:23:40 PM 42.2856 -74.8339 59° Northeast 503 579 30,200 -2,500 Descending Boston Center
Wed 08:24:40 PM 42.3617 -74.6711 58° Northeast 508 585 27,400 -1,600 Descending Boston Center
Wed 08:25:40 PM 42.4358 -74.5022 59° Northeast 508 585 27,000 -200 Descending Boston Center
Wed 08:26:40 PM 42.5117 -74.3356 58° Northeast 508 585 27,000 -800 Level Boston Center
Wed 08:27:40 PM 42.5522 -74.1564 73° East 501 577 25,400 -1,800 Descending Boston Center
Wed 08:28:40 PM 42.5775 -73.9767 79° East 488 562 23,400 -2,200 Descending Boston Center
Wed 08:29:40 PM 42.5961 -73.8333 80° East 483 556 21,000 -2,200 Descending Boston Center
Wed 08:30:40 PM 42.6236 -73.6222 80° East 478 550 19,000 -1,000 Descending Boston Center
Wed 08:31:40 PM 42.6458 -73.4647 79° East 473 544 19,000  Level Boston Center
Wed 08:32:52 PM 42.6683 -73.2758 81° East 462 532 19,000  Level Boston Center
Wed 08:33:52 PM 42.6967 -73.0700 79° East 463 533 19,000  Level Boston Center
Wed 08:35:16 PM 42.7225 -72.8978 78° East 463 533 19,000 -893 Level Boston Center
Wed 08:36:40 PM 42.7525 -72.6408 81° East 463 533 16,500 -2,167 Descending Boston Center
Wed 08:37:40 PM 42.7775 -72.4400 80° East 463 533 13,800 -2,650 Descending Boston Center
Wed 08:38:40 PM 42.7942 -72.2647 83° East 443 510 11,200 -1,800 Descending Boston Center
Wed 08:39:40 PM 42.8064 -72.1175 83° East 406 467 10,200 -950 Descending Boston Center
Wed 08:40:40 PM 42.8308 -71.9956 75° East 348 400 9,300 -1,250 Descending Boston Center
Wed 08:41:40 PM 42.8764 -71.8961 58° Northeast 315 362 7,700 -1,900 Descending Boston Center
Wed 08:42:40 PM 42.9300 -71.7992 53° Northeast 315 362 5,500 -1,700 Descending Boston Center
Wed 08:43:40 PM 42.9775 -71.7022 56° Northeast 315 362 4,300 -1,450 Descending Boston Center
Wed 08:44:40 PM 43.0225 -71.6108 56° Northeast 303 349 2,600 -950 Descending Boston Center
Wed 08:45:40 PM 43.0386 -71.5225 76° East 242 278 2,400 -200 Descending Boston Center

Login

Don't have an account? Register now (free) for customized features, flight alerts, and more!